KRWI/RWI METAR and TAF weather

Enter ICAO airport designator
Station Type Date Time Source
KRWI METAR 2021/03/06 03:53 UTC NOAA

KRWI 060353Z AUTO 31005KT 10SM CLR 06/M10 A3013 RMK AO2 SLP204 T00561100


Station Type Date Time Source
KRWI Decoded METAR 2021/03/06 03:53 UTC NOAA

ROCKY MOUNT-WILSON AIRPORT, NC, United States (KRWI) 35-51N 077-54W 47M
Mar 05, 2021 - 10:53 PM EST / 2021.03.06 0353 UTC
Wind: from the NW (310 degrees) at 6 MPH (5 KT):0
Visibility: 10 mile(s):0
Sky conditions: clear
Temperature: 42.1 F (5.6 C)
Dew Point: 14.0 F (-10.0 C)
Relative Humidity: 31%
Pressure (altimeter): 30.13 in. Hg (1020 hPa)
ob: KRWI 060353Z AUTO 31005KT 10SM CLR 06/M10 A3013 RMK AO2 SLP204 T00561100
cycle: 4

Station Type Date Time Source
KRWI TAF 2021/03/05 18:58 UTC NOAA

TAF
AMD KRWI 051756Z 0518/0618 33009G16KT P6SM SKC
FM052300 32003KT P6SM SCT250

Example: see airport list